DAL2958 KMSP-KDCA
Flight info
| Callsign | DAL2958 |
|---|---|
| Flight time | N/A |
| Altitude | 37000 |
| Route | COULT7 DLL J34 BUCKO FRDMM6 |
| Aircraft | A319/M-SDE3FGHIRWY/LB1 |
Departure
| Time | 2026-05-07 00:47 |
|---|---|
| Airport | Minneapolis–Saint Paul International Airport / Wold–Chamberlain Field (KMSP) |
Arrival
| Time | N/A |
|---|---|
| Airport | Ronald Reagan Washington National Airport (KDCA) |
| Time | Latitude | Longitude | Altitude | Speed | Heading |
|---|---|---|---|---|---|
| 2026-05-07 00:31 | 44.88414 | -93.21564 | 823 ft | 0 kts | 198° |
| 2026-05-07 00:36 | 44.88415 | -93.21564 | 823 ft | 0 kts | 198° |
| 2026-05-07 00:37 | 44.88436 | -93.21554 | 825 ft | 4 kts | 198° |
| 2026-05-07 00:37 | 44.88456 | -93.21545 | 823 ft | 4 kts | 200° |
| 2026-05-07 00:38 | 44.88475 | -93.21526 | 825 ft | 4 kts | 270° |
| 2026-05-07 00:38 | 44.88469 | -93.21494 | 825 ft | 2 kts | 294° |
| 2026-05-07 00:38 | 44.88468 | -93.21492 | 825 ft | 0 kts | 294° |
| 2026-05-07 00:39 | 44.88468 | -93.21491 | 825 ft | 0 kts | 294° |
| 2026-05-07 00:40 | 44.88469 | -93.21494 | 825 ft | 1 kts | 294° |
| 2026-05-07 00:40 | 44.88478 | -93.21523 | 825 ft | 5 kts | 294° |
| 2026-05-07 00:40 | 44.88497 | -93.21577 | 825 ft | 7 kts | 307° |
| 2026-05-07 00:41 | 44.88549 | -93.21593 | 824 ft | 10 kts | 11° |
| 2026-05-07 00:41 | 44.88604 | -93.21531 | 824 ft | 11 kts | 45° |
| 2026-05-07 00:41 | 44.88660 | -93.21452 | 824 ft | 12 kts | 45° |
| 2026-05-07 00:41 | 44.88722 | -93.21366 | 826 ft | 13 kts | 44° |
| 2026-05-07 00:42 | 44.88785 | -93.21267 | 822 ft | 14 kts | 66° |
| 2026-05-07 00:42 | 44.88753 | -93.21142 | 825 ft | 15 kts | 121° |
| 2026-05-07 00:42 | 44.88697 | -93.21013 | 824 ft | 16 kts | 121° |
| 2026-05-07 00:42 | 44.88638 | -93.20876 | 824 ft | 17 kts | 121° |
| 2026-05-07 00:43 | 44.88582 | -93.20748 | 823 ft | 15 kts | 121° |
| 2026-05-07 00:43 | 44.88526 | -93.20619 | 823 ft | 15 kts | 122° |
| 2026-05-07 00:43 | 44.88473 | -93.20497 | 825 ft | 13 kts | 121° |
| 2026-05-07 00:43 | 44.88426 | -93.20387 | 824 ft | 13 kts | 121° |
| 2026-05-07 00:44 | 44.88376 | -93.20271 | 823 ft | 14 kts | 121° |
| 2026-05-07 00:44 | 44.88323 | -93.20148 | 825 ft | 15 kts | 121° |
| 2026-05-07 00:44 | 44.88265 | -93.20015 | 825 ft | 16 kts | 121° |
| 2026-05-07 00:44 | 44.88204 | -93.19874 | 822 ft | 17 kts | 121° |
| 2026-05-07 00:45 | 44.88140 | -93.19724 | 823 ft | 16 kts | 121° |
| 2026-05-07 00:45 | 44.88099 | -93.19631 | 825 ft | 11 kts | 122° |
| 2026-05-07 00:45 | 44.88060 | -93.19535 | 822 ft | 12 kts | 109° |
| 2026-05-07 00:45 | 44.88102 | -93.19446 | 823 ft | 12 kts | 17° |
| 2026-05-07 00:46 | 44.88171 | -93.19502 | 825 ft | 13 kts | 302° |
| 2026-05-07 00:46 | 44.88267 | -93.19725 | 823 ft | 59 kts | 301° |
| 2026-05-07 00:46 | 44.88617 | -93.20536 | 822 ft | 131 kts | 301° |
| 2026-05-07 00:46 | 44.89128 | -93.21726 | 1276 ft | 145 kts | 298° |
| 2026-05-07 00:47 | 44.89874 | -93.22677 | 2047 ft | 152 kts | 338° |
| 2026-05-07 00:47 | 44.90948 | -93.22825 | 2722 ft | 163 kts | 356° |
| 2026-05-07 00:47 | 44.92160 | -93.22749 | 3152 ft | 186 kts | 0° |
| 2026-05-07 00:47 | 44.93457 | -93.22126 | 3508 ft | 218 kts | 30° |
| 2026-05-07 00:48 | 44.94702 | -93.20656 | 4021 ft | 241 kts | 39° |
| 2026-05-07 00:48 | 44.95983 | -93.19004 | 4688 ft | 262 kts | 40° |
| 2026-05-07 00:48 | 44.97257 | -93.17106 | 5658 ft | 274 kts | 55° |
| 2026-05-07 00:48 | 44.97900 | -93.14548 | 6672 ft | 284 kts | 83° |
| 2026-05-07 00:49 | 44.97658 | -93.11772 | 7654 ft | 291 kts | 110° |
| 2026-05-07 00:49 | 44.96777 | -93.09175 | 8622 ft | 296 kts | 119° |
| 2026-05-07 00:49 | 44.95763 | -93.06605 | 9575 ft | 303 kts | 121° |
| 2026-05-07 00:49 | 44.94655 | -93.04018 | 10334 ft | 317 kts | 122° |
| 2026-05-07 00:50 | 44.93440 | -93.01290 | 10806 ft | 337 kts | 123° |
| 2026-05-07 00:50 | 44.92161 | -92.98459 | 11594 ft | 346 kts | 123° |
| 2026-05-07 00:50 | 44.90858 | -92.95572 | 12444 ft | 352 kts | 123° |
| 2026-05-07 00:50 | 44.89543 | -92.92630 | 13307 ft | 358 kts | 122° |
| 2026-05-07 00:51 | 44.88212 | -92.89628 | 14121 ft | 363 kts | 123° |
| 2026-05-07 00:51 | 44.86868 | -92.86587 | 14884 ft | 368 kts | 122° |
| 2026-05-07 00:51 | 44.85503 | -92.83498 | 15632 ft | 373 kts | 122° |
| 2026-05-07 00:51 | 44.84121 | -92.80370 | 16382 ft | 378 kts | 122° |
| 2026-05-07 00:52 | 44.82723 | -92.77208 | 17142 ft | 383 kts | 122° |
| 2026-05-07 00:52 | 44.81302 | -92.74005 | 17870 ft | 388 kts | 123° |
| 2026-05-07 00:52 | 44.79858 | -92.70765 | 18568 ft | 393 kts | 123° |
| 2026-05-07 00:52 | 44.78396 | -92.67490 | 19219 ft | 397 kts | 123° |
| 2026-05-07 00:53 | 44.76920 | -92.64182 | 19878 ft | 401 kts | 123° |
| 2026-05-07 00:53 | 44.75434 | -92.60841 | 20538 ft | 405 kts | 123° |
| 2026-05-07 00:53 | 44.73933 | -92.57474 | 21206 ft | 408 kts | 123° |
| 2026-05-07 00:53 | 44.72410 | -92.54075 | 21855 ft | 412 kts | 123° |
| 2026-05-07 00:54 | 44.70871 | -92.50652 | 22510 ft | 416 kts | 123° |
| 2026-05-07 00:54 | 44.69294 | -92.47226 | 23160 ft | 420 kts | 125° |
| 2026-05-07 00:54 | 44.67625 | -92.43834 | 23774 ft | 423 kts | 127° |
| 2026-05-07 00:54 | 44.65891 | -92.40471 | 24307 ft | 427 kts | 128° |
| 2026-05-07 00:55 | 44.64117 | -92.37108 | 24834 ft | 430 kts | 128° |
| 2026-05-07 00:55 | 44.62324 | -92.33724 | 25343 ft | 434 kts | 128° |
| 2026-05-07 00:55 | 44.60526 | -92.30303 | 25857 ft | 437 kts | 128° |
| 2026-05-07 00:55 | 44.58723 | -92.26840 | 26351 ft | 441 kts | 128° |
| 2026-05-07 00:56 | 44.56919 | -92.23349 | 26838 ft | 444 kts | 128° |
| 2026-05-07 00:56 | 44.55128 | -92.19862 | 27310 ft | 448 kts | 128° |
| 2026-05-07 00:56 | 44.53276 | -92.16258 | 27784 ft | 451 kts | 128° |
| 2026-05-07 00:56 | 44.51456 | -92.12723 | 28244 ft | 454 kts | 128° |
| 2026-05-07 00:57 | 44.49598 | -92.09125 | 28706 ft | 458 kts | 128° |
| 2026-05-07 00:57 | 44.47718 | -92.05493 | 29162 ft | 461 kts | 128° |
| 2026-05-07 00:57 | 44.45828 | -92.01847 | 29617 ft | 464 kts | 128° |
| 2026-05-07 00:57 | 44.43926 | -91.98184 | 30078 ft | 467 kts | 129° |
| 2026-05-07 00:58 | 44.42005 | -91.94498 | 30442 ft | 470 kts | 129° |
| 2026-05-07 00:58 | 44.40071 | -91.90791 | 30783 ft | 473 kts | 129° |
| 2026-05-07 00:58 | 44.38124 | -91.87068 | 31104 ft | 476 kts | 129° |
| 2026-05-07 00:58 | 44.36339 | -91.83135 | 31431 ft | 483 kts | 121° |
| 2026-05-07 00:59 | 44.33180 | -91.74788 | 32044 ft | 489 kts | 120° |
| 2026-05-07 00:59 | 44.31584 | -91.70578 | 32341 ft | 492 kts | 121° |
| 2026-05-07 00:59 | 44.29975 | -91.66347 | 32661 ft | 494 kts | 121° |
| 2026-05-07 01:00 | 44.28360 | -91.62108 | 33074 ft | 494 kts | 121° |
| 2026-05-07 01:00 | 44.26742 | -91.57881 | 33479 ft | 495 kts | 121° |
| 2026-05-07 01:00 | 44.25119 | -91.53647 | 33866 ft | 495 kts | 122° |
| 2026-05-07 01:00 | 44.23493 | -91.49408 | 34216 ft | 496 kts | 122° |
| 2026-05-07 01:01 | 44.21864 | -91.45165 | 34531 ft | 496 kts | 122° |
| 2026-05-07 01:01 | 44.20234 | -91.40914 | 34845 ft | 497 kts | 122° |
| 2026-05-07 01:01 | 44.19156 | -91.38104 | 35062 ft | 497 kts | 122° |
| 2026-05-07 01:01 | 44.17525 | -91.33862 | 35373 ft | 497 kts | 122° |
| 2026-05-07 01:02 | 44.15891 | -91.29631 | 35680 ft | 496 kts | 122° |
| 2026-05-07 01:02 | 44.14251 | -91.25392 | 35969 ft | 497 kts | 122° |
| 2026-05-07 01:02 | 44.12612 | -91.21167 | 36261 ft | 496 kts | 122° |
| 2026-05-07 01:02 | 44.10970 | -91.16940 | 36546 ft | 496 kts | 122° |
| 2026-05-07 01:03 | 44.09329 | -91.12714 | 36826 ft | 496 kts | 122° |
| 2026-05-07 01:03 | 44.07689 | -91.08494 | 37030 ft | 497 kts | 122° |
| 2026-05-07 01:03 | 44.06053 | -91.04283 | 37074 ft | 491 kts | 122° |
| 2026-05-07 01:04 | 44.02821 | -90.95965 | 37065 ft | 487 kts | 122° |
| 2026-05-07 01:04 | 43.99590 | -90.87706 | 37055 ft | 487 kts | 122° |
| 2026-05-07 01:05 | 43.96342 | -90.79454 | 37050 ft | 487 kts | 123° |
| 2026-05-07 01:05 | 43.93090 | -90.71199 | 37061 ft | 488 kts | 123° |
| 2026-05-07 01:06 | 43.89833 | -90.62950 | 37059 ft | 488 kts | 123° |
| 2026-05-07 01:06 | 43.86569 | -90.54697 | 37051 ft | 488 kts | 123° |
| 2026-05-07 01:07 | 43.83298 | -90.46451 | 37030 ft | 488 kts | 123° |
| 2026-05-07 01:07 | 43.80022 | -90.38217 | 37024 ft | 488 kts | 123° |
| 2026-05-07 01:08 | 43.76753 | -90.30028 | 37023 ft | 489 kts | 123° |
| 2026-05-07 01:08 | 43.73455 | -90.21793 | 37023 ft | 489 kts | 123° |
| 2026-05-07 01:09 | 43.70151 | -90.13567 | 37029 ft | 490 kts | 124° |
| 2026-05-07 01:09 | 43.66835 | -90.05339 | 37036 ft | 490 kts | 124° |
| 2026-05-07 01:10 | 43.63506 | -89.97122 | 37033 ft | 491 kts | 124° |
| 2026-05-07 01:10 | 43.60172 | -89.88892 | 37034 ft | 491 kts | 124° |
| 2026-05-07 01:11 | 43.56831 | -89.80674 | 37032 ft | 492 kts | 124° |
| 2026-05-07 01:11 | 43.53870 | -89.72137 | 37032 ft | 497 kts | 115° |
| 2026-05-07 01:12 | 43.51349 | -89.63252 | 37029 ft | 498 kts | 115° |
| 2026-05-07 01:12 | 43.48807 | -89.54375 | 37031 ft | 498 kts | 116° |
| 2026-05-07 01:13 | 43.46249 | -89.45500 | 37033 ft | 499 kts | 116° |
| 2026-05-07 01:13 | 43.43674 | -89.36630 | 37035 ft | 499 kts | 116° |
| 2026-05-07 01:14 | 43.41093 | -89.27753 | 37024 ft | 500 kts | 116° |
| 2026-05-07 01:14 | 43.38517 | -89.18882 | 37032 ft | 500 kts | 116° |
| 2026-05-07 01:15 | 43.35925 | -89.10006 | 37023 ft | 500 kts | 116° |
| 2026-05-07 01:15 | 43.33324 | -89.01136 | 37017 ft | 501 kts | 116° |
| 2026-05-07 01:16 | 43.30719 | -88.92260 | 37020 ft | 501 kts | 117° |
| 2026-05-07 01:16 | 43.28106 | -88.83390 | 37028 ft | 501 kts | 117° |
| 2026-05-07 01:17 | 43.25478 | -88.74527 | 37027 ft | 502 kts | 117° |
| 2026-05-07 01:17 | 43.22857 | -88.65721 | 37025 ft | 502 kts | 117° |
| 2026-05-07 01:18 | 43.20220 | -88.56852 | 37025 ft | 502 kts | 117° |
| 2026-05-07 01:18 | 43.17572 | -88.47995 | 37011 ft | 502 kts | 117° |
| 2026-05-07 01:19 | 43.14918 | -88.39161 | 37009 ft | 503 kts | 117° |
| 2026-05-07 01:19 | 43.12289 | -88.30277 | 37010 ft | 506 kts | 113° |
| 2026-05-07 01:20 | 43.10864 | -88.20776 | 37011 ft | 513 kts | 101° |
| 2026-05-07 01:20 | 43.09854 | -88.11121 | 37025 ft | 513 kts | 101° |
| 2026-05-07 01:21 | 43.08806 | -88.01461 | 37027 ft | 513 kts | 102° |
| 2026-05-07 01:21 | 43.07747 | -87.91801 | 37032 ft | 513 kts | 101° |
| 2026-05-07 01:22 | 43.06695 | -87.82130 | 37016 ft | 513 kts | 102° |
| 2026-05-07 01:22 | 43.05632 | -87.72476 | 37014 ft | 513 kts | 102° |
| 2026-05-07 01:23 | 43.04565 | -87.62885 | 37011 ft | 513 kts | 102° |
| 2026-05-07 01:23 | 43.03485 | -87.53241 | 37015 ft | 513 kts | 102° |
| 2026-05-07 01:24 | 43.02394 | -87.43593 | 37017 ft | 514 kts | 102° |
| 2026-05-07 01:24 | 43.01296 | -87.33950 | 37020 ft | 514 kts | 102° |
| 2026-05-07 01:25 | 43.00191 | -87.24297 | 37021 ft | 514 kts | 102° |
| 2026-05-07 01:25 | 42.99074 | -87.14652 | 37026 ft | 514 kts | 103° |
| 2026-05-07 01:26 | 42.97948 | -87.04998 | 37030 ft | 515 kts | 103° |
| 2026-05-07 01:26 | 42.96813 | -86.95343 | 37033 ft | 515 kts | 103° |
| 2026-05-07 01:27 | 42.95675 | -86.85698 | 37029 ft | 515 kts | 103° |
| 2026-05-07 01:27 | 42.94526 | -86.76048 | 37028 ft | 515 kts | 103° |
| 2026-05-07 01:28 | 42.93364 | -86.66393 | 37029 ft | 515 kts | 103° |
| 2026-05-07 01:28 | 42.92198 | -86.56745 | 37026 ft | 516 kts | 103° |
| 2026-05-07 01:29 | 42.91024 | -86.47084 | 37012 ft | 516 kts | 103° |
| 2026-05-07 01:29 | 42.89841 | -86.37432 | 37007 ft | 516 kts | 103° |
| 2026-05-07 01:30 | 42.88647 | -86.27779 | 37003 ft | 517 kts | 104° |
| 2026-05-07 01:30 | 42.87441 | -86.18115 | 37004 ft | 517 kts | 104° |
| 2026-05-07 01:31 | 42.86233 | -86.08508 | 37002 ft | 517 kts | 104° |
| 2026-05-07 01:31 | 42.85011 | -85.98840 | 37004 ft | 517 kts | 104° |
| 2026-05-07 01:32 | 42.83786 | -85.89173 | 37004 ft | 518 kts | 104° |
| 2026-05-07 01:32 | 42.82548 | -85.79507 | 36995 ft | 518 kts | 104° |
| 2026-05-07 01:33 | 42.81296 | -85.69836 | 36990 ft | 518 kts | 104° |
| 2026-05-07 01:33 | 42.80041 | -85.60171 | 36988 ft | 519 kts | 104° |
| 2026-05-07 01:34 | 42.78621 | -85.50559 | 36983 ft | 513 kts | 113° |
| 2026-05-07 01:34 | 42.75887 | -85.41735 | 36983 ft | 504 kts | 123° |
| 2026-05-07 01:35 | 42.72859 | -85.33124 | 36983 ft | 505 kts | 123° |
| 2026-05-07 01:35 | 42.69832 | -85.24509 | 36982 ft | 505 kts | 123° |
| 2026-05-07 01:36 | 42.66790 | -85.15887 | 36981 ft | 506 kts | 123° |
| 2026-05-07 01:36 | 42.63763 | -85.07328 | 36977 ft | 506 kts | 123° |
| 2026-05-07 01:37 | 42.60708 | -84.98720 | 36963 ft | 506 kts | 124° |
| 2026-05-07 01:37 | 42.57622 | -84.90056 | 36960 ft | 506 kts | 124° |
| 2026-05-07 01:38 | 42.54548 | -84.81455 | 36961 ft | 507 kts | 124° |
| 2026-05-07 01:38 | 42.51469 | -84.72862 | 36960 ft | 507 kts | 124° |
| 2026-05-07 01:39 | 42.48383 | -84.64276 | 36964 ft | 507 kts | 124° |
| 2026-05-07 01:39 | 42.45276 | -84.55671 | 36966 ft | 508 kts | 124° |